Time;durP1;ratioP1;P1;durP2;ratioP2;P2;SDS_P1;SDS_P2;PMS_P1;PMS_P2;Temp;Humidity;BMP_temperature;BMP_pressure;BME280_temperature;BME280_humidity;BME280_pressure;Samples;Min_cycle;Max_cycle;Signal;HPM_P1;HPM_P2
2021/11/22 00:01:53;;;;;;;7.35;6.50;;;;;;;13.42;56.98;99649.18;2243681;85;25872;-75
2021/11/22 00:05:15;;;;;;;8.35;6.60;;;;;;;13.42;56.98;99647.00;2277724;85;26358;-79
2021/11/22 00:08:39;;;;;;;8.10;5.78;;;;;;;13.40;56.97;99647.02;2271296;85;25874;-78
2021/11/22 00:12:01;;;;;;;8.78;6.40;;;;;;;13.40;56.96;99650.95;2257826;85;26561;-78
2021/11/22 00:15:22;;;;;;;7.53;6.78;;;;;;;13.40;56.96;99654.00;2284708;86;25301;-74
2021/11/22 00:18:51;;;;;;;7.20;6.33;;;;;;;13.40;56.96;99654.00;2307334;84;25298;-80
2021/11/22 00:22:12;;;;;;;6.17;5.58;;;;;;;13.37;56.97;99652.69;2292209;84;25695;-77
2021/11/22 00:25:34;;;;;;;7.72;6.15;;;;;;;13.37;56.96;99661.86;2326911;84;25844;-73
2021/11/22 00:28:55;;;;;;;7.28;5.72;;;;;;;13.35;56.95;99664.89;2309849;84;25901;-76
2021/11/22 00:32:30;;;;;;;6.95;5.72;;;;;;;13.34;56.94;99661.84;2194289;88;25744;-73
2021/11/22 00:36:16;;;;;;;8.00;6.62;;;;;;;13.34;56.95;99661.84;2204103;88;25863;-78
2021/11/22 00:39:37;;;;;;;17.95;6.25;;;;;;;13.30;56.95;99659.66;2204089;88;26158;-75
2021/11/22 00:42:58;;;;;;;8.40;6.62;;;;;;;13.30;56.95;99657.48;2197655;88;31399;-79
2021/11/22 00:46:37;;;;;;;7.45;6.75;;;;;;;13.28;57.23;99675.80;2197478;88;25914;-77
2021/11/22 00:53:53;;;;;;;8.43;5.97;;;;;;;13.28;56.96;99677.55;2174000;87;25788;-74
2021/11/22 00:57:14;;;;;;;8.40;6.03;;;;;;;13.26;56.96;99679.27;2185950;88;26202;-77
2021/11/22 01:00:36;;;;;;;8.08;6.10;;;;;;;13.25;56.95;99681.02;2191659;88;25727;-74
2021/11/22 01:03:59;;;;;;;6.28;5.53;;;;;;;13.24;56.93;99687.14;2210795;88;25746;-80
2021/11/22 01:07:20;;;;;;;10.18;5.47;;;;;;;13.09;57.05;99667.43;2244531;85;25898;-75
2021/11/22 01:10:41;;;;;;;8.13;6.12;;;;;;;13.09;57.05;99667.43;2315797;84;30976;-77
2021/11/22 01:14:03;;;;;;;8.58;6.30;;;;;;;13.22;56.96;99691.45;2304679;83;25680;-73
2021/11/22 01:17:25;;;;;;;7.22;5.78;;;;;;;13.19;56.96;99698.85;2327017;82;26059;-79
2021/11/22 01:20:57;;;;;;;7.15;5.60;;;;;;;13.19;56.96;99700.16;2360652;82;25551;-79
2021/11/22 01:24:18;;;;;;;6.28;5.65;;;;;;;13.18;56.94;99705.41;2354895;82;25621;-78
2021/11/22 01:27:40;;;;;;;7.42;5.03;;;;;;;13.17;56.95;99703.67;2342651;82;30913;-74
2021/11/22 01:31:01;;;;;;;7.40;5.53;;;;;;;13.16;56.96;99711.96;2337399;83;25201;-77
2021/11/22 01:34:36;;;;;;;8.73;5.62;;;;;;;13.15;56.97;99719.35;2295028;84;25848;-78
2021/11/22 01:37:57;;;;;;;6.67;6.00;;;;;;;13.15;56.97;99722.41;2331925;84;26453;-78
2021/11/22 01:41:20;;;;;;;7.83;5.42;;;;;;;13.14;56.98;99719.36;2333477;83;25662;-74
2021/11/22 01:44:42;;;;;;;11.18;6.12;;;;;;;13.14;56.99;99718.92;2326126;83;25708;-78
2021/11/22 01:48:39;;;;;;;7.60;5.47;;;;;;;13.13;56.98;99728.09;2329262;84;25661;-76
2021/11/22 01:52:00;;;;;;;7.47;5.58;;;;;;;13.10;56.97;99728.95;2308178;83;25715;-78
2021/11/22 01:55:26;;;;;;;8.45;5.47;;;;;;;13.12;56.98;99735.05;2335999;83;26164;-79
2021/11/22 01:58:53;;;;;;;8.25;5.75;;;;;;;13.10;56.83;99730.26;2333720;84;25829;-80
2021/11/22 02:02:14;;;;;;;6.33;5.55;;;;;;;13.12;56.97;99733.73;2337117;83;25789;-76
2021/11/22 02:05:36;;;;;;;6.78;5.87;;;;;;;13.11;56.97;99725.89;2319332;83;25906;-77
2021/11/22 02:08:57;;;;;;;10.30;6.47;;;;;;;13.10;56.96;99735.94;2333083;83;25688;-79
2021/11/22 02:12:19;;;;;;;7.00;5.12;;;;;;;13.10;56.97;99735.49;2333781;83;25629;-75
2021/11/22 02:15:41;;;;;;;7.15;6.12;;;;;;;13.10;56.97;99743.78;2327463;83;26088;-75
2021/11/22 02:19:07;;;;;;;7.92;5.97;;;;;;;13.10;56.95;99739.86;2331682;83;26266;-79
2021/11/22 02:22:30;;;;;;;6.55;5.95;;;;;;;13.09;56.95;99741.58;2333232;84;25685;-76
2021/11/22 02:26:00;;;;;;;6.78;5.40;;;;;;;13.08;56.95;99741.14;2335196;83;25621;-77
2021/11/22 02:29:20;;;;;;;6.85;5.05;;;;;;;13.08;56.95;99745.51;2335471;83;25589;-79
2021/11/22 02:32:49;;;;;;;8.25;5.97;;;;;;;13.08;56.96;99754.67;2333814;83;30984;-81
2021/11/22 02:36:11;;;;;;;10.38;6.20;;;;;;;13.08;56.96;99758.15;2330698;83;25686;-75
2021/11/22 02:39:33;;;;;;;6.33;5.28;;;;;;;13.06;56.95;99757.30;2339488;84;25836;-78
2021/11/22 02:42:54;;;;;;;7.37;6.00;;;;;;;13.09;56.94;99765.56;2340874;84;25712;-75
2021/11/22 02:46:15;;;;;;;6.37;5.12;;;;;;;13.09;56.95;99761.64;2341128;83;30940;-78
2021/11/22 02:49:36;;;;;;;8.18;5.72;;;;;;;13.08;56.94;99768.62;2338698;83;25708;-76
2021/11/22 02:52:57;;;;;;;6.58;5.67;;;;;;;13.08;56.95;99759.90;2323210;84;25590;-79
2021/11/22 02:56:19;;;;;;;7.15;5.85;;;;;;;13.08;56.94;99763.39;2334569;83;30785;-79
2021/11/22 02:59:41;;;;;;;7.87;5.65;;;;;;;13.08;56.94;99766.00;2337300;83;25702;-77
2021/11/22 03:03:03;;;;;;;6.53;5.58;;;;;;;13.08;56.95;99765.13;2339285;83;25678;-79
2021/11/22 03:06:25;;;;;;;7.05;5.80;;;;;;;13.07;56.93;99771.25;2340343;83;25715;-74
2021/11/22 03:09:46;;;;;;;8.15;5.67;;;;;;;13.06;56.93;99779.53;2333371;83;25785;-74
2021/11/22 03:13:07;;;;;;;5.90;5.30;;;;;;;13.07;56.94;99784.33;2340156;84;30804;-74
2021/11/22 03:16:30;;;;;;;6.05;5.40;;;;;;;13.07;56.93;99802.21;2338109;83;25683;-73
2021/11/22 03:19:52;;;;;;;6.35;5.53;;;;;;;13.06;56.93;99799.16;2337534;83;25777;-74
2021/11/22 03:23:17;;;;;;;6.72;5.58;;;;;;;13.06;56.92;99810.94;2331353;83;26414;-74
2021/11/22 03:26:38;;;;;;;8.43;5.70;;;;;;;13.05;56.92;99813.09;2330626;82;25844;-74
2021/11/22 03:29:59;;;;;;;6.62;5.65;;;;;;;13.05;56.93;99811.78;2318618;83;25881;-74
2021/11/22 03:33:34;;;;;;;6.28;5.40;;;;;;;13.05;56.92;99814.40;2289547;84;25825;-81
2021/11/22 03:37:02;;;;;;;7.80;6.75;;;;;;;13.05;56.91;99818.33;2300535;83;25670;-80
2021/11/22 03:40:30;;;;;;;9.75;5.58;;;;;;;13.04;56.91;99828.36;2344643;82;25677;-74
2021/11/22 03:43:57;;;;;;;9.25;6.15;;;;;;;13.04;56.90;99833.59;2345409;82;25510;-74
2021/11/22 03:47:14;;;;;;;8.73;6.42;;;;;;;13.04;56.89;99836.65;2347444;82;25913;-75
2021/11/22 03:50:36;;;;;;;9.85;6.25;;;;;;;13.02;56.88;99843.16;2346290;82;25878;-74
2021/11/22 03:53:58;;;;;;;7.58;6.12;;;;;;;13.02;56.88;99843.16;2344213;82;25725;-74
2021/11/22 03:57:19;;;;;;;7.45;5.85;;;;;;;13.03;56.89;99851.89;2356792;82;25659;-74
2021/11/22 04:00:40;;;;;;;8.60;6.42;;;;;;;13.02;56.88;99861.92;2343462;82;25776;-73
2021/11/22 04:04:01;;;;;;;7.25;6.53;;;;;;;13.03;56.88;99865.88;2349572;82;30814;-74
2021/11/22 04:07:26;;;;;;;7.67;5.50;;;;;;;13.02;56.87;99860.17;2358539;82;25650;-74
2021/11/22 04:10:47;;;;;;;9.28;6.20;;;;;;;13.03;56.86;99867.18;2351149;82;25637;-80
2021/11/22 04:14:09;;;;;;;7.67;5.80;;;;;;;13.04;56.85;99870.66;2345853;83;25895;-73
2021/11/22 04:17:30;;;;;;;7.33;6.00;;;;;;;13.02;56.85;99868.02;2357176;81;26338;-74
2021/11/22 04:20:54;;;;;;;10.90;7.00;;;;;;;13.02;56.85;99878.48;2339303;82;25595;-74
2021/11/22 04:24:15;;;;;;;6.62;5.72;;;;;;;13.02;56.84;99882.41;2344658;83;25173;-79
2021/11/22 04:27:39;;;;;;;7.35;5.67;;;;;;;13.02;56.82;99891.57;2357994;82;25673;-74
2021/11/22 04:31:04;;;;;;;6.62;5.10;;;;;;;13.02;56.83;99888.09;2346215;82;25723;-73
2021/11/22 04:34:23;;;;;;;6.58;5.87;;;;;;;13.02;56.81;99894.63;2348753;82;25731;-73
2021/11/22 04:37:45;;;;;;;6.15;5.53;;;;;;;13.01;56.81;99889.83;2358355;82;30949;-73
2021/11/22 04:41:21;;;;;;;6.83;5.87;;;;;;;13.01;56.81;99898.98;2339758;83;25563;-81
2021/11/22 04:44:49;;;;;;;7.67;6.22;;;;;;;13.00;56.81;99901.17;2345954;82;26057;-79
2021/11/22 04:48:13;;;;;;;5.78;5.12;;;;;;;12.99;56.79;99905.95;2342084;82;25736;-77
2021/11/22 04:51:47;;;;;;;7.00;5.30;;;;;;;12.99;56.78;99909.87;2356562;82;25346;-79
2021/11/22 04:55:09;;;;;;;5.33;4.85;;;;;;;12.99;56.78;99915.10;2350331;82;25635;-79
2021/11/22 04:58:35;;;;;;;6.92;5.45;;;;;;;12.97;56.78;99921.65;2344826;82;25611;-79
2021/11/22 05:01:57;;;;;;;6.80;6.20;;;;;;;12.94;56.80;99917.70;2346578;81;25719;-75
2021/11/22 05:05:20;;;;;;;6.62;4.92;;;;;;;12.96;56.79;99922.52;2350057;82;25714;-75
2021/11/22 05:08:41;;;;;;;7.62;4.95;;;;;;;12.97;56.80;99928.19;2355589;82;25649;-73
2021/11/22 05:12:05;;;;;;;5.80;5.20;;;;;;;12.96;56.79;99927.76;2341321;83;25732;-76
2021/11/22 05:15:26;;;;;;;7.40;4.83;;;;;;;12.97;56.79;99934.73;2346284;82;25679;-78
2021/11/22 05:18:47;;;;;;;7.67;5.28;;;;;;;12.86;56.70;99914.58;2343422;82;25787;-79
2021/11/22 05:22:11;;;;;;;5.72;4.72;;;;;;;12.96;56.77;99939.97;2355706;82;25316;-80
2021/11/22 05:25:59;;;;;;;6.30;5.58;;;;;;;12.96;56.76;99955.67;2341489;82;25798;-77
2021/11/22 05:29:20;;;;;;;5.20;4.70;;;;;;;12.94;56.77;99953.45;2346020;82;25606;-79
2021/11/22 05:32:59;;;;;;;8.13;4.62;;;;;;;12.95;56.75;99958.69;2347273;82;26093;-79
2021/11/22 05:36:21;;;;;;;5.60;4.08;;;;;;;12.95;56.74;99961.74;2342142;82;25687;-79
2021/11/22 05:39:44;;;;;;;4.72;4.22;;;;;;;12.94;56.72;99963.48;2351876;83;25769;-74
2021/11/22 05:43:06;;;;;;;5.70;4.33;;;;;;;12.94;56.69;99971.77;2296188;83;25544;-77
2021/11/22 05:46:28;;;;;;;5.33;3.98;;;;;;;12.93;56.67;99972.21;2308179;84;26295;-80
2021/11/22 05:50:03;;;;;;;3.55;3.25;;;;;;;12.91;56.66;99974.37;2349890;82;25708;-80
2021/11/22 05:53:23;;;;;;;6.78;3.80;;;;;;;12.91;56.67;99972.63;2345260;83;25831;-77
2021/11/22 05:56:54;;;;;;;4.95;4.37;;;;;;;12.91;56.67;99982.22;2360991;83;25709;-77
2021/11/22 06:00:29;;;;;;;4.50;3.80;;;;;;;12.91;56.66;99988.75;2302414;83;25538;-80
2021/11/22 06:03:58;;;;;;;4.33;3.98;;;;;;;12.90;56.67;99997.48;2333511;83;25915;-80
2021/11/22 06:07:19;;;;;;;5.30;4.47;;;;;;;12.88;56.68;99989.59;2328559;83;25744;-80
2021/11/22 06:10:43;;;;;;;7.25;4.42;;;;;;;12.90;56.66;100000.09;2348340;83;25716;-80
2021/11/22 06:14:07;;;;;;;5.97;4.15;;;;;;;12.91;56.67;99999.22;2342314;83;26371;-80
2021/11/22 06:17:30;;;;;;;4.70;4.10;;;;;;;12.89;56.67;99999.22;2343352;83;25803;-75
2021/11/22 06:21:05;;;;;;;6.65;4.85;;;;;;;12.90;56.66;100011.43;2344584;83;25682;-79
2021/11/22 06:24:26;;;;;;;5.92;4.15;;;;;;;12.92;56.65;100014.05;2313911;84;26428;-80
2021/11/22 06:28:26;;;;;;;4.87;3.95;;;;;;;12.92;56.66;100016.66;2307025;83;25679;-83
2021/11/22 06:31:58;;;;;;;;;;;;;;;12.93;56.64;100021.92;2282918;84;25543;-79
2021/11/22 06:39:15;;;;;;;7.80;5.33;;;;;;;12.95;56.67;100033.26;2276685;86;26089;-78
2021/11/22 06:42:43;;;;;;;6.97;6.03;;;;;;;13.02;57.76;100032.88;2261259;84;26125;-86
2021/11/22 06:46:16;;;;;;;10.93;6.12;;;;;;;12.72;56.11;100048.78;2255750;84;25748;-81
2021/11/22 06:49:57;;;;;;;5.85;5.25;;;;;;;12.37;56.24;100057.98;2274737;84;25988;-79
2021/11/22 06:54:08;;;;;;;6.95;6.20;;;;;;;12.22;56.35;100056.09;2274748;84;25553;-80
2021/11/22 07:02:03;;;;;;;7.95;5.22;;;;;;;11.97;56.17;100062.30;2291521;84;25375;-81
2021/11/22 07:05:39;;;;;;;10.43;7.22;;;;;;;11.94;56.27;100063.99;2280495;84;25837;-83
2021/11/22 07:12:56;;;;;;;10.88;8.23;;;;;;;11.85;56.25;100079.13;2288303;85;26229;-82
2021/11/22 07:16:44;;;;;;;7.33;6.40;;;;;;;11.62;56.26;100080.51;2178662;87;44025;-79
2021/11/22 07:20:20;;;;;;;10.85;5.75;;;;;;;11.43;56.50;100079.34;2251347;86;26401;-78
2021/11/22 07:24:07;;;;;;;6.75;4.72;;;;;;;11.31;56.53;100090.05;2149890;89;26038;-80
2021/11/22 07:27:44;;;;;;;6.25;4.62;;;;;;;11.16;56.55;100101.53;2151623;91;26394;-81
2021/11/22 07:35:15;;;;;;;11.25;5.60;;;;;;;10.93;56.78;100095.92;2111478;92;25903;-80
2021/11/22 07:38:39;;;;;;;9.53;4.78;;;;;;;10.79;57.00;100088.28;2111165;92;25756;-85
2021/11/22 07:42:01;;;;;;;6.40;3.25;;;;;;;10.70;57.21;100104.66;2125591;92;25859;-84
2021/11/22 07:45:25;;;;;;;4.62;3.98;;;;;;;10.67;57.30;100099.81;2112564;92;25689;-86
2021/11/22 07:48:49;;;;;;;5.67;4.50;;;;;;;10.66;57.44;100107.16;2167343;87;25841;-84
2021/11/22 07:52:18;;;;;;;9.80;5.47;;;;;;;10.62;57.34;100115.34;2223301;87;26070;-83
2021/11/22 07:55:39;;;;;;;8.65;5.87;;;;;;;10.65;57.37;100118.02;2196358;89;25822;-86
2021/11/22 07:59:03;;;;;;;8.23;6.97;;;;;;;10.76;57.23;100129.94;2182309;88;25903;-79
2021/11/22 08:02:31;;;;;;;10.35;6.90;;;;;;;10.87;57.15;100132.35;2175153;89;25829;-82
2021/11/22 08:06:06;;;;;;;9.80;7.42;;;;;;;10.91;57.03;100139.37;2174803;89;26356;-81
2021/11/22 08:09:34;;;;;;;10.38;6.72;;;;;;;11.00;56.97;100141.25;2159933;87;26104;-84
2021/11/22 08:17:03;;;;;;;9.30;6.53;;;;;;;11.24;57.86;100152.14;2239282;86;25929;-82
2021/11/22 08:21:16;;;;;;;10.13;5.80;;;;;;;11.35;57.20;100159.71;2240078;86;26560;-83
2021/11/22 08:24:45;;;;;;;8.93;5.58;;;;;;;11.44;57.04;100166.83;2249887;87;25732;-84
2021/11/22 08:28:16;;;;;;;6.55;5.95;;;;;;;11.42;56.57;100174.17;2243460;87;26008;-80
2021/11/22 08:31:55;;;;;;;5.55;3.83;;;;;;;11.30;56.57;100177.01;2240874;85;25925;-80
2021/11/22 08:35:20;;;;;;;4.83;3.62;;;;;;;11.22;56.58;100176.02;2255283;87;25881;-81
2021/11/22 08:38:44;;;;;;;3.62;3.30;;;;;;;11.18;56.68;100172.90;2245190;87;26140;-82
2021/11/22 08:42:08;;;;;;;3.40;2.92;;;;;;;11.26;56.79;100176.52;2256211;85;25714;-84
2021/11/22 08:45:29;;;;;;;4.03;2.85;;;;;;;11.38;56.83;100182.38;2258068;85;26326;-81
2021/11/22 08:48:51;;;;;;;4.17;2.80;;;;;;;11.56;57.01;100185.28;2265283;85;25680;-82
2021/11/22 08:52:13;;;;;;;3.65;2.87;;;;;;;11.78;57.68;100190.88;2264798;87;25958;-83
2021/11/22 08:55:40;;;;;;;4.20;3.15;;;;;;;12.07;58.02;100187.41;2255403;85;25750;-87
2021/11/22 08:59:09;;;;;;;5.37;2.60;;;;;;;12.32;59.26;100196.48;2250055;85;25995;-85
2021/11/22 09:02:47;;;;;;;4.55;2.22;;;;;;;12.52;59.01;100198.05;2240340;86;25639;-83
2021/11/22 09:06:11;;;;;;;4.60;3.33;;;;;;;12.82;59.25;100204.49;2158575;89;26311;-78
2021/11/22 09:09:53;;;;;;;4.90;2.77;;;;;;;13.10;57.02;100199.16;2150771;91;26298;-79
2021/11/22 09:13:46;;;;;;;4.83;3.00;;;;;;;13.04;55.62;100201.70;2154504;88;26065;-80
2021/11/22 09:17:09;;;;;;;5.67;2.98;;;;;;;12.90;54.91;100203.73;2137218;91;25778;-84
2021/11/22 09:20:41;;;;;;;4.22;2.58;;;;;;;12.80;54.25;100213.64;2144626;90;26059;-78
2021/11/22 09:24:10;;;;;;;3.92;2.62;;;;;;;12.80;54.25;100213.64;2133400;91;26381;-87
2021/11/22 09:27:40;;;;;;;3.10;2.42;;;;;;;12.68;53.99;100218.28;2149265;90;25997;-82
2021/11/22 09:31:09;;;;;;;2.50;2.30;;;;;;;12.46;53.74;100221.06;2104924;92;26027;-80
2021/11/22 09:34:49;;;;;;;3.15;2.42;;;;;;;12.46;53.74;100221.06;2098223;92;25939;-80
2021/11/22 09:38:33;;;;;;;2.92;2.62;;;;;;;12.40;53.61;100217.48;2106300;91;26277;-78
2021/11/22 09:42:02;;;;;;;3.83;2.90;;;;;;;12.34;53.78;100215.66;2104030;92;25980;-78
2021/11/22 09:45:29;;;;;;;3.87;2.67;;;;;;;12.30;53.76;100212.56;2122435;89;26550;-79
2021/11/22 09:49:01;;;;;;;3.12;2.25;;;;;;;12.29;53.72;100216.92;2134394;91;25884;-77
2021/11/22 09:52:27;;;;;;;3.47;2.87;;;;;;;12.28;53.64;100229.55;2127372;92;25762;-78
2021/11/22 09:56:34;;;;;;;6.28;2.72;;;;;;;12.23;53.59;100233.81;2132668;91;26145;-83
2021/11/22 09:59:48;;;;;;;3.60;2.85;;;;;;;12.18;53.66;100228.97;2133442;89;25724;-80
2021/11/22 10:03:26;;;;;;;5.22;3.60;;;;;;;12.14;53.74;100234.97;2142803;91;26078;-77
2021/11/22 10:07:04;;;;;;;7.47;3.35;;;;;;;12.15;54.02;100232.84;2152508;91;25784;-77
2021/11/22 10:10:27;;;;;;;3.75;3.30;;;;;;;12.20;53.95;100237.69;2133869;91;25793;-79
2021/11/22 10:13:50;;;;;;;7.90;2.98;;;;;;;12.14;53.80;100231.05;2130582;90;25849;-82
2021/11/22 10:17:48;;;;;;;7.72;3.20;;;;;;;11.99;53.79;100241.30;2153075;90;26093;-77
2021/11/22 10:21:13;;;;;;;22.15;8.00;;;;;;;11.87;53.85;100247.19;2150555;91;25864;-77
2021/11/22 10:24:34;;;;;;;9.83;4.40;;;;;;;12.21;56.74;100244.66;2156139;90;25642;-77
2021/11/22 10:28:03;;;;;;;8.13;4.05;;;;;;;12.48;56.97;100251.14;2156784;91;31354;-85
2021/11/22 10:31:27;;;;;;;4.23;2.80;;;;;;;12.66;56.95;100254.45;2159216;90;26597;-78
2021/11/22 10:34:48;;;;;;;4.47;2.75;;;;;;;13.13;56.67;100255.03;2156904;88;25714;-77
2021/11/22 10:38:17;;;;;;;4.87;3.00;;;;;;;13.68;56.09;100249.05;2156628;90;30895;-80
2021/11/22 10:41:43;;;;;;;4.90;2.47;;;;;;;14.03;55.27;100251.51;2155856;91;25788;-78
2021/11/22 10:45:24;;;;;;;3.25;2.37;;;;;;;14.35;54.36;100248.68;2154435;91;25782;-77
2021/11/22 10:48:50;;;;;;;6.00;2.98;;;;;;;14.85;53.44;100250.72;2163631;90;25668;-76
2021/11/22 10:52:37;;;;;;;2.77;2.17;;;;;;;14.84;51.39;100254.20;2159777;89;26013;-79
2021/11/22 10:55:59;;;;;;;2.72;2.35;;;;;;;14.81;51.97;100270.37;2160282;91;25663;-77
2021/11/22 10:59:23;;;;;;;3.42;2.52;;;;;;;15.31;51.19;100266.61;2157835;90;25658;-79
2021/11/22 11:02:51;;;;;;;3.83;2.37;;;;;;;15.67;50.35;100272.84;2161914;90;25781;-77
2021/11/22 11:06:41;;;;;;;2.70;2.25;;;;;;;15.91;49.41;100275.92;2186110;88;25752;-77
2021/11/22 11:10:03;;;;;;;3.33;1.62;;;;;;;16.10;48.63;100283.80;2188871;89;25775;-77
2021/11/22 11:13:50;;;;;;;3.60;2.25;;;;;;;16.24;47.86;100290.81;2195026;84;25476;-78
2021/11/22 11:17:37;;;;;;;4.92;2.60;;;;;;;16.34;47.30;100287.73;2287816;84;25670;-77
2021/11/22 11:21:10;;;;;;;2.95;2.22;;;;;;;16.45;46.88;100291.66;2291019;84;26338;-77
2021/11/22 11:24:37;;;;;;;3.67;2.00;;;;;;;16.24;46.28;100291.26;2281328;85;25636;-79
2021/11/22 11:27:58;;;;;;;2.83;2.35;;;;;;;15.74;45.56;100291.69;2267438;85;25789;-77
2021/11/22 11:31:25;;;;;;;3.33;1.87;;;;;;;15.28;45.75;100295.48;2284855;85;31205;-76
2021/11/22 11:34:55;;;;;;;1.80;1.50;;;;;;;14.98;46.50;100291.44;2279109;84;25756;-75
2021/11/22 11:38:42;;;;;;;3.05;1.87;;;;;;;15.25;46.83;100288.91;2284453;85;25723;-75
2021/11/22 11:42:56;;;;;;;2.72;2.30;;;;;;;15.65;46.48;100287.69;2207393;87;26257;-78
2021/11/22 11:47:16;;;;;;;4.62;3.10;;;;;;;15.53;45.29;100293.81;2156649;88;25823;-80
2021/11/22 11:50:43;;;;;;;4.50;2.90;;;;;;;15.17;45.97;100297.66;2140945;89;25690;-77
2021/11/22 11:54:27;;;;;;;4.35;3.00;;;;;;;14.83;45.60;100296.20;2156113;88;25899;-80
2021/11/22 12:02:43;;;;;;;3.80;3.47;;;;;;;13.88;46.17;100299.02;2207739;88;25905;-79
2021/11/22 12:06:06;;;;;;;3.30;2.97;;;;;;;13.49;46.73;100303.43;2165162;88;26073;-81
2021/11/22 12:09:38;;;;;;;3.72;3.42;;;;;;;13.16;47.09;100302.19;2180730;88;25876;-80
2021/11/22 12:13:07;;;;;;;7.00;3.80;;;;;;;12.96;47.49;100306.30;2193837;87;26000;-80
2021/11/22 12:16:47;;;;;;;3.27;2.90;;;;;;;12.81;47.80;100307.39;2215745;89;25767;-80
2021/11/22 12:20:26;;;;;;;5.30;3.52;;;;;;;12.63;48.09;100306.72;2255628;86;25680;-83
2021/11/22 12:23:56;;;;;;;4.33;3.52;;;;;;;12.41;48.19;100296.36;2261467;86;26523;-76
2021/11/22 12:27:40;;;;;;;4.58;3.15;;;;;;;12.31;48.68;100308.41;2274692;85;25754;-77
2021/11/22 12:31:16;;;;;;;4.33;3.02;;;;;;;12.32;49.03;100309.28;2259759;86;25684;-81
2021/11/22 12:34:37;;;;;;;5.50;3.20;;;;;;;12.28;49.16;100289.66;2245069;86;25835;-83
2021/11/22 12:38:18;;;;;;;4.30;3.58;;;;;;;12.37;49.41;100307.64;2316115;83;30996;-81
2021/11/22 12:41:41;;;;;;;4.00;2.80;;;;;;;12.41;49.24;100305.08;2304515;84;26658;-83
2021/11/22 12:45:08;;;;;;;4.72;3.35;;;;;;;12.32;49.15;100300.14;2315539;84;25963;-82
2021/11/22 12:48:43;;;;;;;3.40;2.20;;;;;;;12.25;49.26;100276.95;2292105;85;25759;-79
2021/11/22 12:52:24;;;;;;;7.28;2.92;;;;;;;12.41;49.24;100310.31;2264310;86;25662;-82
2021/11/22 12:55:49;;;;;;;5.78;2.27;;;;;;;12.40;48.61;100316.84;2274336;86;25679;-77
2021/11/22 12:59:23;;;;;;;5.17;2.65;;;;;;;12.41;48.50;100314.23;2266542;85;25783;-81
2021/11/22 13:02:54;;;;;;;3.47;2.52;;;;;;;12.46;48.23;100323.04;2279213;84;26797;-82
2021/11/22 13:06:18;;;;;;;6.95;2.50;;;;;;;12.42;48.04;100330.39;2249877;85;25983;-78
2021/11/22 13:09:41;;;;;;;2.35;1.90;;;;;;;12.36;47.99;100328.11;2216604;85;25669;-80
2021/11/22 13:16:52;;;;;;;3.75;1.60;;;;;;;12.18;47.93;100329.59;2121906;92;25357;-81
2021/11/22 13:20:14;;;;;;;4.75;2.02;;;;;;;12.22;47.92;100329.20;2150872;90;25880;-77
2021/11/22 13:23:38;;;;;;;3.50;2.20;;;;;;;12.23;47.93;100332.27;2133812;89;25869;-76
2021/11/22 13:27:06;;;;;;;2.42;1.90;;;;;;;12.24;47.88;100332.27;2163469;89;25911;-79
2021/11/22 13:30:38;;;;;;;4.75;2.47;;;;;;;12.19;47.80;100343.09;2146849;90;25810;-83
2021/11/22 13:34:00;;;;;;;4.05;2.20;;;;;;;12.14;47.91;100342.55;2123082;89;25888;-83
2021/11/22 13:37:33;;;;;;;4.08;3.27;;;;;;;12.11;48.13;100347.30;2120000;91;25848;-77
2021/11/22 13:40:59;;;;;;;6.80;3.25;;;;;;;12.02;48.24;100345.42;2124319;91;25814;-80
2021/11/22 13:44:48;;;;;;;3.33;2.27;;;;;;;11.98;48.47;100346.63;2119650;91;25702;-82
2021/11/22 13:48:55;;;;;;;6.05;2.77;;;;;;;11.95;49.51;100350.09;2198562;88;26490;-81
2021/11/22 13:52:35;;;;;;;3.95;2.08;;;;;;;12.33;49.74;100349.84;2190793;88;26160;-82
2021/11/22 13:55:56;;;;;;;5.45;2.52;;;;;;;12.68;49.77;100358.65;2201410;88;25760;-82
2021/11/22 13:59:49;;;;;;;10.25;3.58;;;;;;;12.89;50.08;100360.28;2207554;89;30957;-82
2021/11/22 14:07:11;;;;;;;3.60;1.62;;;;;;;13.21;51.02;100367.23;2154158;90;25989;-82
2021/11/22 14:10:51;;;;;;;4.20;1.72;;;;;;;13.32;51.59;100375.69;2160716;90;25704;-81
2021/11/22 14:14:51;;;;;;;13.38;5.78;;;;;;;13.38;52.02;100367.47;2144455;90;26442;-82
2021/11/22 14:18:39;;;;;;;27.42;6.37;;;;;;;13.42;52.63;100368.39;2152775;88;25886;-83
2021/11/22 14:22:13;;;;;;;21.68;6.58;;;;;;;13.46;53.14;100376.31;2205136;87;31036;-82
2021/11/22 14:26:40;;;;;;;31.12;10.08;;;;;;;13.50;53.41;100382.87;2204340;87;25978;-82
2021/11/22 14:30:06;;;;;;;24.80;5.92;;;;;;;13.52;52.59;100385.97;2237671;85;26471;-86
2021/11/22 14:33:42;;;;;;;12.53;4.65;;;;;;;13.55;53.56;100390.37;2245045;86;25962;-80
2021/11/22 14:37:28;;;;;;;10.00;2.85;;;;;;;13.46;52.46;100392.44;2248430;86;25681;-88
2021/11/22 14:40:59;;;;;;;5.70;2.00;;;;;;;13.22;51.61;100390.36;2180376;87;25733;-74
2021/11/22 14:44:23;;;;;;;6.60;2.40;;;;;;;12.98;51.19;100390.48;2211083;88;25924;-81
2021/11/22 14:47:44;;;;;;;3.95;1.60;;;;;;;12.78;50.86;100394.98;2212095;88;25256;-75
2021/11/22 14:51:31;;;;;;;4.75;2.42;;;;;;;12.58;50.60;100393.37;2211612;87;25618;-76
2021/11/22 14:54:54;;;;;;;3.35;1.30;;;;;;;12.34;50.41;100392.55;2215428;87;25710;-86
2021/11/22 14:58:49;;;;;;;1.57;1.27;;;;;;;12.09;50.48;100393.45;2217274;87;25789;-88
2021/11/22 15:02:27;;;;;;;3.77;2.10;;;;;;;11.90;50.49;100394.84;2177444;88;25733;-76
2021/11/22 15:05:48;;;;;;;4.17;2.17;;;;;;;11.76;50.50;100395.85;2136800;89;25838;-82
2021/11/22 15:09:16;;;;;;;6.95;1.92;;;;;;;11.63;50.49;100400.81;2146674;89;25880;-76
2021/11/22 15:12:51;;;;;;;6.08;2.22;;;;;;;11.54;50.49;100401.50;2141307;89;25421;-85
2021/11/22 15:16:12;;;;;;;2.87;1.70;;;;;;;11.39;50.52;100406.42;2163488;89;26441;-81
2021/11/22 15:19:39;;;;;;;8.35;1.65;;;;;;;11.26;50.55;100407.47;2136621;89;31072;-83
2021/11/22 15:23:00;;;;;;;4.92;1.85;;;;;;;11.21;50.57;100408.23;2128926;90;25715;-87
2021/11/22 15:26:30;;;;;;;2.42;1.70;;;;;;;11.10;50.64;100404.97;2143768;89;25948;-84
2021/11/22 15:29:55;;;;;;;3.10;1.85;;;;;;;11.04;50.72;100417.00;2150725;90;25760;-86
2021/11/22 15:33:24;;;;;;;3.12;1.57;;;;;;;10.96;50.70;100413.32;2171844;88;25621;-85
2021/11/22 15:36:50;;;;;;;6.03;2.75;;;;;;;10.89;50.70;100417.52;2197070;89;26408;-76
2021/11/22 15:40:14;;;;;;;20.48;3.02;;;;;;;10.82;50.78;100415.19;2198930;89;26511;-82
2021/11/22 15:43:43;;;;;;;6.62;2.25;;;;;;;10.74;50.84;100419.36;2259710;84;26351;-76
2021/11/22 15:47:13;;;;;;;8.20;2.47;;;;;;;10.72;51.01;100426.25;2258670;86;30891;-85
2021/11/22 15:50:34;;;;;;;6.03;2.22;;;;;;;10.66;51.11;100430.44;2251427;86;25874;-75
2021/11/22 15:53:57;;;;;;;12.55;3.10;;;;;;;10.61;51.22;100435.12;2261765;86;25680;-85
2021/11/22 15:57:19;;;;;;;5.70;2.75;;;;;;;10.57;51.30;100440.24;2266973;86;25643;-76
2021/11/22 16:00:43;;;;;;;9.75;3.10;;;;;;;10.57;51.45;100445.03;2251049;86;26059;-87
2021/11/22 16:04:17;;;;;;;8.90;3.12;;;;;;;10.56;51.45;100444.97;2245016;85;26378;-79
2021/11/22 16:07:38;;;;;;;14.30;3.87;;;;;;;10.51;51.57;100446.17;2255602;85;25818;-88
2021/11/22 16:11:17;;;;;;;6.70;3.98;;;;;;;10.46;51.67;100455.62;2260562;85;29359;-78
2021/11/22 16:14:38;;;;;;;7.45;3.10;;;;;;;10.37;51.78;100457.98;2251541;83;25620;-85
2021/11/22 16:18:00;;;;;;;11.00;3.50;;;;;;;10.29;53.18;100463.41;2285109;83;25777;-80
2021/11/22 16:21:21;;;;;;;9.25;4.60;;;;;;;10.51;53.00;100460.52;2286738;84;25699;-81
2021/11/22 16:25:28;;;;;;;9.70;4.37;;;;;;;10.62;53.00;100465.56;2270928;85;25681;-83
2021/11/22 16:28:50;;;;;;;8.08;3.75;;;;;;;10.69;52.96;100459.20;2269917;85;25738;-77
2021/11/22 16:32:16;;;;;;;7.87;4.15;;;;;;;10.72;52.91;100461.88;2277712;84;26123;-80
2021/11/22 16:36:02;;;;;;;4.53;3.72;;;;;;;10.75;52.86;100461.53;2295004;83;26036;-84
2021/11/22 16:40:05;;;;;;;5.00;3.17;;;;;;;10.74;52.85;100461.51;2282886;85;25851;-82
2021/11/22 16:43:23;;;;;;;7.95;3.83;;;;;;;10.80;53.25;100474.67;2289524;83;26379;-78
2021/11/22 16:47:00;;;;;;;9.75;4.10;;;;;;;10.87;53.11;100472.27;2283542;84;25823;-83
2021/11/22 16:50:25;;;;;;;2.77;2.12;;;;;;;10.85;53.04;100464.82;2293924;83;25642;-83
2021/11/22 16:53:46;;;;;;;5.67;2.87;;;;;;;11.13;55.10;100465.88;2293578;85;25719;-84